Time;durP1;ratioP1;P1;durP2;ratioP2;P2;SDS_P1;SDS_P2;PMS_P1;PMS_P2;Temp;Humidity;BMP_temperature;BMP_pressure;BME280_temperature;BME280_humidity;BME280_pressure;Samples;Min_cycle;Max_cycle;Signal;HPM_P1;HPM_P2
2023/08/19 00:02:01;;;;;;;2.97;2.10;;;;;;;;;;5030741;28;20207;-88
2023/08/19 00:04:27;;;;;;;3.20;2.30;;;;;;;;;;5056722;28;20231;-86
2023/08/19 00:06:53;;;;;;;2.60;2.30;;;;;;;;;;5023619;28;20209;-86
2023/08/19 00:09:21;;;;;;;4.37;2.53;;;;;;;;;;5049718;28;20184;-86
2023/08/19 00:11:47;;;;;;;4.20;2.43;;;;;;;;;;5049512;28;20304;-86
2023/08/19 00:14:13;;;;;;;5.50;2.57;;;;;;;;;;5011549;28;20197;-86
2023/08/19 00:16:39;;;;;;;5.90;2.63;;;;;;;;;;5036188;28;20659;-86
2023/08/19 00:19:05;;;;;;;2.77;2.50;;;;;;;;;;5044432;28;20811;-86
2023/08/19 00:21:31;;;;;;;4.53;2.60;;;;;;;;;;5021702;28;20190;-86
2023/08/19 00:23:59;;;;;;;4.33;2.33;;;;;;;;;;5061440;28;20190;-86
2023/08/19 00:26:25;;;;;;;4.27;2.40;;;;;;;;;;5023543;28;20198;-86
2023/08/19 00:28:51;;;;;;;3.90;2.30;;;;;;;;;;5015974;28;20197;-86
2023/08/19 00:31:17;;;;;;;3.60;2.80;;;;;;;;;;5017977;28;20184;-86
2023/08/19 00:33:44;;;;;;;4.30;2.70;;;;;;;;;;5022263;28;20217;-86
2023/08/19 00:36:10;;;;;;;3.53;2.47;;;;;;;;;;5026383;28;20244;-85
2023/08/19 00:38:37;;;;;;;3.97;2.50;;;;;;;;;;5035607;28;20249;-86
2023/08/19 00:41:04;;;;;;;3.50;2.80;;;;;;;;;;5017077;28;20228;-87
2023/08/19 00:43:31;;;;;;;5.57;2.40;;;;;;;;;;5053746;28;20278;-86
2023/08/19 00:45:58;;;;;;;2.97;2.47;;;;;;;;;;5050385;28;20196;-86
2023/08/19 00:48:25;;;;;;;3.83;2.50;;;;;;;;;;5046603;28;20198;-86
2023/08/19 00:50:51;;;;;;;3.37;2.47;;;;;;;;;;5014975;28;20276;-85
2023/08/19 00:53:18;;;;;;;3.67;3.00;;;;;;;;;;5017663;28;20235;-86
2023/08/19 00:55:44;;;;;;;3.60;2.60;;;;;;;;;;5046317;28;20190;-86
2023/08/19 00:58:11;;;;;;;3.20;2.60;;;;;;;;;;5027890;28;20564;-86
2023/08/19 01:00:38;;;;;;;3.57;2.40;;;;;;;;;;5029224;28;20303;-87
2023/08/19 01:03:04;;;;;;;3.97;2.50;;;;;;;;;;5045499;28;20207;-85
2023/08/19 01:06:03;;;;;;;3.27;2.50;;;;;;;;;;5012256;28;20198;-86
2023/08/19 01:08:49;;;;;;;3.27;2.30;;;;;;;;;;4999468;28;20199;-86
2023/08/19 01:11:23;;;;;;;2.87;2.10;;;;;;;;;;5016385;28;20367;-86
2023/08/19 01:13:54;;;;;;;2.73;2.20;;;;;;;;;;5064064;22;20225;-78
2023/08/19 01:16:25;;;;;;;2.87;2.40;;;;;;;;;;5042796;28;20244;-79
2023/08/19 01:18:54;;;;;;;3.47;2.40;;;;;;;;;;5048822;28;20193;-79
2023/08/19 01:21:21;;;;;;;2.60;2.10;;;;;;;;;;5034200;28;20524;-79
2023/08/19 01:23:48;;;;;;;2.53;2.20;;;;;;;;;;5044786;28;20209;-79
2023/08/19 01:26:17;;;;;;;2.50;2.00;;;;;;;;;;5048281;28;20213;-79
2023/08/19 01:28:43;;;;;;;4.03;2.33;;;;;;;;;;5045229;28;20183;-79
2023/08/19 01:31:09;;;;;;;5.87;2.43;;;;;;;;;;5040251;28;20188;-79
2023/08/19 01:33:36;;;;;;;2.73;2.20;;;;;;;;;;5046307;28;20255;-78
2023/08/19 01:36:02;;;;;;;2.40;2.10;;;;;;;;;;5048799;28;20293;-79
2023/08/19 01:38:37;;;;;;;3.90;2.07;;;;;;;;;;5046609;28;20704;-79
2023/08/19 01:41:04;;;;;;;4.00;2.20;;;;;;;;;;5049146;28;20645;-79
2023/08/19 01:43:32;;;;;;;2.97;2.40;;;;;;;;;;5051672;28;20259;-79
2023/08/19 01:45:58;;;;;;;2.47;2.20;;;;;;;;;;5047986;28;20187;-79
2023/08/19 01:48:24;;;;;;;2.43;2.20;;;;;;;;;;5049184;28;20214;-79
2023/08/19 01:50:51;;;;;;;2.27;2.07;;;;;;;;;;5054100;28;20198;-79
2023/08/19 01:53:17;;;;;;;3.17;2.00;;;;;;;;;;5047776;28;20209;-78
2023/08/19 01:55:44;;;;;;;2.83;2.00;;;;;;;;;;5043035;28;20235;-79
2023/08/19 01:58:10;;;;;;;2.63;2.20;;;;;;;;;;5015630;28;20190;-79
2023/08/19 02:00:36;;;;;;;2.70;1.90;;;;;;;;;;5042788;28;20210;-79
2023/08/19 02:03:02;;;;;;;2.37;2.17;;;;;;;;;;5035374;28;20206;-78
2023/08/19 02:05:29;;;;;;;2.30;2.10;;;;;;;;;;5041310;28;20273;-79
2023/08/19 02:07:55;;;;;;;4.63;2.50;;;;;;;;;;5047703;28;20220;-79
2023/08/19 02:10:21;;;;;;;2.87;2.07;;;;;;;;;;5036767;28;20256;-79
2023/08/19 02:12:47;;;;;;;2.97;2.23;;;;;;;;;;5041194;28;20221;-79
2023/08/19 02:15:14;;;;;;;3.00;2.20;;;;;;;;;;5037053;28;20228;-79
2023/08/19 02:17:40;;;;;;;3.40;2.10;;;;;;;;;;5043921;28;20194;-79
2023/08/19 02:20:07;;;;;;;3.43;2.47;;;;;;;;;;5048380;28;20220;-79
2023/08/19 02:22:33;;;;;;;2.23;2.03;;;;;;;;;;5040393;28;20208;-79
2023/08/19 02:24:59;;;;;;;5.30;2.33;;;;;;;;;;5041338;28;20193;-79
2023/08/19 02:27:25;;;;;;;5.03;2.10;;;;;;;;;;5051729;28;20224;-79
2023/08/19 02:29:52;;;;;;;4.70;2.40;;;;;;;;;;5043003;28;20639;-79
2023/08/19 02:32:18;;;;;;;2.50;2.30;;;;;;;;;;5049135;28;20205;-79
2023/08/19 02:34:44;;;;;;;3.40;2.33;;;;;;;;;;5041877;28;20179;-79
2023/08/19 02:37:13;;;;;;;4.07;2.20;;;;;;;;;;5052991;28;20229;-79
2023/08/19 02:39:39;;;;;;;2.60;2.40;;;;;;;;;;5035516;28;20270;-79
2023/08/19 02:42:07;;;;;;;4.17;2.20;;;;;;;;;;5055614;28;20281;-79
2023/08/19 02:44:33;;;;;;;3.93;2.20;;;;;;;;;;5049620;28;20253;-79
2023/08/19 02:46:59;;;;;;;2.80;2.00;;;;;;;;;;5062548;28;20213;-79
2023/08/19 02:49:26;;;;;;;3.73;2.47;;;;;;;;;;5054441;28;20182;-79
2023/08/19 02:51:52;;;;;;;3.80;2.47;;;;;;;;;;5046315;28;20650;-79
2023/08/19 02:54:19;;;;;;;6.33;2.80;;;;;;;;;;5048902;28;20188;-79
2023/08/19 02:56:45;;;;;;;3.70;2.57;;;;;;;;;;5040347;28;20266;-79
2023/08/19 02:59:11;;;;;;;2.80;2.50;;;;;;;;;;5036703;28;20197;-79
2023/08/19 03:01:38;;;;;;;2.90;2.60;;;;;;;;;;5047852;28;20198;-79
2023/08/19 03:04:04;;;;;;;3.57;3.10;;;;;;;;;;5036442;28;20230;-79
2023/08/19 03:06:30;;;;;;;4.63;2.87;;;;;;;;;;5052093;28;20280;-79
2023/08/19 03:08:56;;;;;;;4.43;3.00;;;;;;;;;;5043299;28;20185;-79
2023/08/19 03:11:22;;;;;;;4.87;3.20;;;;;;;;;;5041213;28;20197;-79
2023/08/19 03:13:48;;;;;;;6.13;3.53;;;;;;;;;;5052809;28;20221;-79
2023/08/19 03:16:14;;;;;;;5.03;3.43;;;;;;;;;;5053906;28;20181;-79
2023/08/19 03:18:41;;;;;;;4.77;3.30;;;;;;;;;;5045331;28;20359;-79
2023/08/19 03:21:07;;;;;;;5.47;3.40;;;;;;;;;;5044953;28;20186;-79
2023/08/19 03:23:33;;;;;;;5.70;3.40;;;;;;;;;;5048644;28;20691;-79
2023/08/19 03:25:59;;;;;;;5.23;3.80;;;;;;;;;;5049329;28;20186;-79
2023/08/19 03:28:26;;;;;;;3.60;3.27;;;;;;;;;;5049766;28;20186;-79
2023/08/19 03:30:52;;;;;;;4.40;3.10;;;;;;;;;;5045489;28;20475;-79
2023/08/19 03:33:20;;;;;;;6.47;3.13;;;;;;;;;;5041594;28;20208;-79
2023/08/19 03:35:46;;;;;;;3.97;3.33;;;;;;;;;;5047024;28;20668;-79
2023/08/19 03:38:13;;;;;;;4.90;3.27;;;;;;;;;;5043390;28;20548;-79
2023/08/19 03:40:39;;;;;;;5.63;3.13;;;;;;;;;;5051414;28;20270;-79
2023/08/19 03:43:08;;;;;;;3.93;3.47;;;;;;;;;;5052541;28;20262;-79
2023/08/19 03:45:34;;;;;;;3.80;3.10;;;;;;;;;;5045748;28;20317;-79
2023/08/19 03:48:00;;;;;;;3.93;3.30;;;;;;;;;;5051967;28;20222;-79
2023/08/19 03:50:27;;;;;;;4.00;2.87;;;;;;;;;;5038140;28;20198;-79
2023/08/19 03:52:53;;;;;;;3.47;3.17;;;;;;;;;;5053468;28;20206;-79
2023/08/19 03:55:19;;;;;;;4.03;3.13;;;;;;;;;;5042161;28;20182;-79
2023/08/19 03:57:45;;;;;;;3.67;2.87;;;;;;;;;;5032048;28;20584;-79
2023/08/19 04:00:12;;;;;;;5.30;3.10;;;;;;;;;;5049953;28;20244;-79
2023/08/19 04:02:40;;;;;;;5.93;3.30;;;;;;;;;;5052712;28;20679;-79
2023/08/19 04:05:09;;;;;;;4.20;3.40;;;;;;;;;;5048899;28;20197;-79
2023/08/19 04:07:35;;;;;;;4.97;3.33;;;;;;;;;;5057093;28;20811;-79
2023/08/19 04:10:02;;;;;;;5.27;3.70;;;;;;;;;;5048581;28;20618;-79
2023/08/19 04:12:28;;;;;;;4.77;3.40;;;;;;;;;;5036475;28;20210;-79
2023/08/19 04:14:55;;;;;;;4.80;3.30;;;;;;;;;;5054703;28;20256;-79
2023/08/19 04:17:21;;;;;;;5.10;3.57;;;;;;;;;;5053692;28;20972;-79
2023/08/19 04:19:47;;;;;;;3.87;3.50;;;;;;;;;;5040918;28;20662;-79
2023/08/19 04:22:15;;;;;;;4.43;3.57;;;;;;;;;;5028817;28;20217;-79
2023/08/19 04:24:41;;;;;;;4.10;3.30;;;;;;;;;;5047768;28;20247;-79
2023/08/19 04:27:07;;;;;;;5.37;3.47;;;;;;;;;;5029451;28;20255;-79
2023/08/19 04:29:35;;;;;;;4.20;3.80;;;;;;;;;;5047558;28;20179;-79
2023/08/19 04:32:02;;;;;;;5.93;4.07;;;;;;;;;;5054378;28;20189;-79
2023/08/19 04:34:29;;;;;;;6.00;3.73;;;;;;;;;;5044017;28;20732;-79
2023/08/19 04:36:57;;;;;;;5.10;4.00;;;;;;;;;;5035544;28;20200;-79
2023/08/19 04:39:24;;;;;;;4.77;3.90;;;;;;;;;;5040502;28;20179;-79
2023/08/19 04:41:53;;;;;;;4.47;3.53;;;;;;;;;;5052474;28;20194;-78
2023/08/19 04:44:21;;;;;;;6.40;4.23;;;;;;;;;;5041150;28;20402;-79
2023/08/19 04:46:47;;;;;;;4.60;4.13;;;;;;;;;;5053735;28;20217;-78
2023/08/19 04:49:14;;;;;;;5.50;4.53;;;;;;;;;;5056860;28;20177;-78
2023/08/19 04:51:40;;;;;;;5.50;4.30;;;;;;;;;;5025901;28;20191;-79
2023/08/19 04:54:07;;;;;;;4.60;4.07;;;;;;;;;;5056844;28;20282;-79
2023/08/19 04:56:33;;;;;;;4.80;3.90;;;;;;;;;;5061470;28;20181;-78
2023/08/19 04:59:00;;;;;;;6.40;3.73;;;;;;;;;;5067421;28;20180;-79
2023/08/19 05:01:28;;;;;;;5.13;4.10;;;;;;;;;;5051029;28;20187;-79
2023/08/19 05:03:54;;;;;;;4.97;3.80;;;;;;;;;;5066038;28;20201;-78
2023/08/19 05:06:22;;;;;;;6.13;4.00;;;;;;;;;;5063091;28;20233;-78
2023/08/19 05:08:49;;;;;;;5.73;4.40;;;;;;;;;;5052980;28;20194;-79
2023/08/19 05:11:15;;;;;;;6.40;4.60;;;;;;;;;;5057177;28;20236;-79
2023/08/19 05:13:43;;;;;;;7.13;5.63;;;;;;;;;;5029843;28;20226;-79
2023/08/19 05:16:11;;;;;;;7.53;4.90;;;;;;;;;;5069865;28;20273;-79
2023/08/19 05:18:37;;;;;;;6.77;5.60;;;;;;;;;;5063062;28;20479;-79
2023/08/19 05:21:04;;;;;;;7.37;5.47;;;;;;;;;;5054057;28;20198;-79
2023/08/19 05:23:30;;;;;;;6.70;5.17;;;;;;;;;;5039866;28;20205;-79
2023/08/19 05:25:56;;;;;;;7.23;4.67;;;;;;;;;;5063817;28;20184;-77
2023/08/19 05:28:22;;;;;;;9.73;5.30;;;;;;;;;;5046961;28;20285;-77
2023/08/19 05:30:48;;;;;;;5.83;5.20;;;;;;;;;;5054129;28;20313;-76
2023/08/19 05:33:14;;;;;;;5.30;4.80;;;;;;;;;;5054984;28;20193;-76
2023/08/19 05:35:41;;;;;;;6.20;4.50;;;;;;;;;;5050568;28;20180;-77
2023/08/19 05:38:07;;;;;;;6.00;4.40;;;;;;;;;;5055028;28;20188;-77
2023/08/19 05:40:33;;;;;;;6.50;5.10;;;;;;;;;;5047902;28;20182;-77
2023/08/19 05:42:59;;;;;;;6.50;5.07;;;;;;;;;;5045587;28;20570;-77
2023/08/19 05:45:25;;;;;;;6.20;4.83;;;;;;;;;;5042747;28;20190;-77
2023/08/19 05:47:51;;;;;;;6.50;4.77;;;;;;;;;;5041682;28;20214;-77
2023/08/19 05:50:17;;;;;;;5.23;4.23;;;;;;;;;;5011397;28;20215;-77
2023/08/19 05:52:44;;;;;;;6.33;4.37;;;;;;;;;;5027922;28;20580;-77
2023/08/19 05:55:10;;;;;;;6.40;4.60;;;;;;;;;;5034755;28;20196;-77
2023/08/19 05:57:36;;;;;;;6.07;4.77;;;;;;;;;;5040290;28;20178;-77
2023/08/19 06:00:03;;;;;;;7.87;4.70;;;;;;;;;;5044723;28;20185;-78
2023/08/19 06:02:39;;;;;;;6.43;4.57;;;;;;;;;;5029973;28;20208;-77
2023/08/19 06:05:05;;;;;;;9.20;4.43;;;;;;;;;;5045009;28;20691;-77
2023/08/19 06:07:33;;;;;;;6.37;4.20;;;;;;;;;;5050299;28;20771;-77
2023/08/19 06:09:59;;;;;;;4.77;4.37;;;;;;;;;;5047782;28;20182;-77
2023/08/19 06:12:25;;;;;;;5.10;4.13;;;;;;;;;;5048845;28;20217;-77
2023/08/19 06:14:51;;;;;;;5.23;4.53;;;;;;;;;;5042658;28;20184;-77
2023/08/19 06:17:18;;;;;;;6.00;4.27;;;;;;;;;;5033835;28;20272;-78
2023/08/19 06:19:44;;;;;;;6.93;4.00;;;;;;;;;;5048832;28;20182;-77
2023/08/19 06:22:10;;;;;;;4.43;3.70;;;;;;;;;;5048430;28;20202;-77
2023/08/19 06:24:36;;;;;;;5.50;3.77;;;;;;;;;;5047399;28;20179;-78
2023/08/19 06:27:02;;;;;;;6.30;3.90;;;;;;;;;;5057716;28;20217;-77
2023/08/19 06:29:28;;;;;;;7.17;3.93;;;;;;;;;;5034812;28;20666;-75
2023/08/19 06:31:55;;;;;;;6.33;3.87;;;;;;;;;;5046038;28;20192;-77
2023/08/19 06:34:21;;;;;;;6.73;4.10;;;;;;;;;;5052020;28;20198;-77
2023/08/19 06:36:49;;;;;;;5.13;3.97;;;;;;;;;;5050461;28;20186;-77
2023/08/19 06:39:19;;;;;;;8.03;4.57;;;;;;;;;;5053362;28;20571;-76
2023/08/19 06:41:46;;;;;;;5.23;4.20;;;;;;;;;;5051128;28;20224;-77
2023/08/19 06:44:18;;;;;;;7.27;4.27;;;;;;;;;;5036585;28;20212;-76
2023/08/19 06:46:45;;;;;;;7.40;4.60;;;;;;;;;;5047212;28;20220;-77
2023/08/19 06:49:11;;;;;;;9.40;4.40;;;;;;;;;;5047882;28;20193;-77
2023/08/19 06:51:37;;;;;;;5.43;4.50;;;;;;;;;;5056851;28;20555;-77
2023/08/19 06:54:04;;;;;;;7.07;5.00;;;;;;;;;;5051768;28;20205;-77
2023/08/19 06:56:34;;;;;;;6.03;4.70;;;;;;;;;;5043699;28;20183;-77
2023/08/19 06:59:03;;;;;;;7.30;4.60;;;;;;;;;;5046504;28;20268;-77
2023/08/19 07:01:30;;;;;;;6.33;4.40;;;;;;;;;;5014894;28;20200;-77
2023/08/19 07:03:57;;;;;;;5.00;3.73;;;;;;;;;;5046538;28;20209;-78
2023/08/19 07:06:23;;;;;;;5.27;4.40;;;;;;;;;;5044299;28;20300;-76
2023/08/19 07:08:50;;;;;;;6.63;3.87;;;;;;;;;;5046575;28;20190;-76
2023/08/19 07:11:16;;;;;;;5.80;4.10;;;;;;;;;;5046860;28;20195;-76
2023/08/19 07:13:46;;;;;;;4.60;4.00;;;;;;;;;;5065288;22;20264;-80
2023/08/19 07:16:13;;;;;;;5.63;3.97;;;;;;;;;;4990106;28;20197;-80
2023/08/19 07:18:40;;;;;;;4.83;4.23;;;;;;;;;;4976332;28;20282;-80
2023/08/19 07:21:09;;;;;;;7.63;4.43;;;;;;;;;;5009018;28;20190;-80
2023/08/19 07:23:35;;;;;;;7.57;5.10;;;;;;;;;;5009136;28;20607;-80
2023/08/19 07:26:03;;;;;;;5.83;4.97;;;;;;;;;;4992827;28;20183;-80
2023/08/19 07:28:30;;;;;;;7.67;5.00;;;;;;;;;;5011741;28;20218;-80
2023/08/19 07:30:56;;;;;;;5.23;4.73;;;;;;;;;;4985172;28;20206;-81
2023/08/19 07:33:23;;;;;;;8.93;5.10;;;;;;;;;;5008610;28;20203;-80
2023/08/19 07:35:49;;;;;;;8.63;5.30;;;;;;;;;;5007092;28;20186;-81
2023/08/19 07:38:15;;;;;;;7.43;4.97;;;;;;;;;;4992710;28;20198;-80
2023/08/19 07:40:41;;;;;;;7.13;4.60;;;;;;;;;;4994123;28;20210;-80
2023/08/19 07:43:08;;;;;;;8.37;5.40;;;;;;;;;;5013909;28;20250;-80
2023/08/19 07:45:34;;;;;;;10.47;5.30;;;;;;;;;;4990015;28;20191;-81
2023/08/19 07:48:00;;;;;;;5.77;4.90;;;;;;;;;;4993430;28;20199;-81
2023/08/19 07:50:26;;;;;;;5.67;4.97;;;;;;;;;;4990099;28;20202;-81
2023/08/19 07:52:52;;;;;;;7.60;5.40;;;;;;;;;;5008097;28;20202;-81
2023/08/19 07:55:19;;;;;;;7.63;5.70;;;;;;;;;;5008116;28;20295;-81
2023/08/19 07:57:45;;;;;;;7.10;6.40;;;;;;;;;;5007882;28;20186;-81
2023/08/19 08:00:11;;;;;;;7.67;6.20;;;;;;;;;;5005679;28;20238;-81
2023/08/19 08:02:42;;;;;;;7.47;6.67;;;;;;;;;;5033231;28;20705;-81
2023/08/19 08:05:10;;;;;;;8.20;6.07;;;;;;;;;;4997037;28;20193;-81
2023/08/19 08:07:36;;;;;;;9.43;5.93;;;;;;;;;;4991189;28;20276;-81
2023/08/19 08:10:05;;;;;;;7.83;6.80;;;;;;;;;;4991490;28;20643;-81
2023/08/19 08:12:31;;;;;;;9.30;5.87;;;;;;;;;;5010292;28;20689;-81
2023/08/19 08:14:58;;;;;;;7.53;5.37;;;;;;;;;;5008750;28;20182;-81
2023/08/19 08:17:24;;;;;;;6.13;5.13;;;;;;;;;;5010572;28;20187;-81
2023/08/19 08:19:51;;;;;;;6.60;5.47;;;;;;;;;;4978236;28;20217;-81
2023/08/19 08:22:17;;;;;;;5.17;4.53;;;;;;;;;;4993258;28;20191;-82
2023/08/19 08:24:43;;;;;;;6.30;4.70;;;;;;;;;;4977834;28;20269;-81
2023/08/19 08:27:09;;;;;;;6.10;4.60;;;;;;;;;;4984846;28;20631;-82
2023/08/19 08:29:36;;;;;;;7.27;4.40;;;;;;;;;;4976583;28;20192;-82
2023/08/19 08:32:02;;;;;;;7.70;4.80;;;;;;;;;;5007237;28;20241;-81
2023/08/19 08:34:29;;;;;;;5.87;4.13;;;;;;;;;;4974028;28;20210;-81
2023/08/19 08:36:55;;;;;;;5.23;4.23;;;;;;;;;;4977043;28;20186;-81
2023/08/19 08:39:21;;;;;;;5.03;4.33;;;;;;;;;;4971012;28;20194;-82
2023/08/19 08:41:47;;;;;;;4.30;3.90;;;;;;;;;;4982366;28;20187;-82
2023/08/19 08:44:13;;;;;;;5.07;4.07;;;;;;;;;;4995661;28;20218;-81
2023/08/19 08:46:40;;;;;;;5.43;4.03;;;;;;;;;;4989476;28;20203;-81
2023/08/19 08:49:08;;;;;;;6.03;3.80;;;;;;;;;;4976546;28;20222;-81
2023/08/19 08:51:34;;;;;;;4.63;4.23;;;;;;;;;;4976242;28;20195;-81
2023/08/19 08:54:01;;;;;;;4.30;3.80;;;;;;;;;;5007732;28;20571;-82
2023/08/19 08:56:27;;;;;;;5.37;3.73;;;;;;;;;;5006782;28;20179;-83
2023/08/19 08:58:53;;;;;;;6.23;4.03;;;;;;;;;;4989254;28;20187;-81
2023/08/19 09:01:22;;;;;;;4.83;3.40;;;;;;;;;;5006971;28;20186;-82
2023/08/19 09:03:51;;;;;;;6.03;3.80;;;;;;;;;;5006378;28;20211;-81
2023/08/19 09:06:17;;;;;;;5.93;4.13;;;;;;;;;;4991573;28;20187;-82
2023/08/19 09:08:50;;;;;;;4.93;3.80;;;;;;;;;;5004610;28;20202;-81
2023/08/19 09:11:19;;;;;;;4.70;3.50;;;;;;;;;;5007462;28;20242;-81
2023/08/19 09:13:47;;;;;;;7.63;3.60;;;;;;;;;;4991593;28;20758;-82
2023/08/19 09:16:13;;;;;;;7.03;3.87;;;;;;;;;;5008813;28;20177;-81
2023/08/19 09:18:39;;;;;;;5.73;3.70;;;;;;;;;;5007723;28;20195;-82
2023/08/19 09:21:06;;;;;;;6.73;3.83;;;;;;;;;;4993680;28;20183;-82
2023/08/19 09:23:32;;;;;;;5.83;3.67;;;;;;;;;;5008542;28;20210;-81
2023/08/19 09:25:59;;;;;;;3.97;3.40;;;;;;;;;;5002325;28;20921;-81
2023/08/19 09:28:25;;;;;;;6.27;3.80;;;;;;;;;;5007126;28;20203;-82
2023/08/19 09:30:52;;;;;;;5.90;4.03;;;;;;;;;;4991457;28;20321;-82
2023/08/19 09:33:21;;;;;;;5.90;3.60;;;;;;;;;;4990696;28;20203;-79
2023/08/19 09:35:56;;;;;;;4.17;3.70;;;;;;;;;;5008386;28;20238;-81
2023/08/19 09:38:23;;;;;;;5.33;3.90;;;;;;;;;;5005961;28;20184;-80
2023/08/19 09:41:01;;;;;;;5.00;4.00;;;;;;;;;;4987067;28;20187;-81
2023/08/19 09:43:27;;;;;;;6.07;3.63;;;;;;;;;;5006744;28;20204;-80
2023/08/19 09:45:57;;;;;;;5.73;3.60;;;;;;;;;;4999262;28;20610;-81
2023/08/19 09:48:24;;;;;;;4.60;3.90;;;;;;;;;;5003157;28;20221;-79
2023/08/19 09:50:50;;;;;;;5.87;3.60;;;;;;;;;;5017927;28;20219;-79
2023/08/19 09:53:17;;;;;;;6.60;4.10;;;;;;;;;;5012322;28;20230;-79
2023/08/19 09:55:47;;;;;;;5.27;3.87;;;;;;;;;;5009455;28;20184;-75
2023/08/19 09:58:13;;;;;;;4.93;3.80;;;;;;;;;;5003534;28;20188;-71
2023/08/19 10:00:40;;;;;;;4.80;3.80;;;;;;;;;;5004964;28;21720;-73
2023/08/19 10:03:06;;;;;;;5.63;4.07;;;;;;;;;;5007085;28;20244;-73
2023/08/19 10:05:35;;;;;;;5.10;4.20;;;;;;;;;;5003809;28;20274;-75
2023/08/19 10:08:07;;;;;;;4.40;4.00;;;;;;;;;;5006335;28;20203;-76
2023/08/19 10:10:34;;;;;;;5.90;4.10;;;;;;;;;;5007593;28;20662;-73
2023/08/19 10:13:01;;;;;;;5.47;3.80;;;;;;;;;;5010323;28;20294;-74
2023/08/19 10:15:27;;;;;;;4.80;3.80;;;;;;;;;;5005399;28;20581;-74
2023/08/19 10:17:55;;;;;;;5.57;3.93;;;;;;;;;;5004222;28;20677;-75
2023/08/19 10:20:24;;;;;;;5.90;4.00;;;;;;;;;;5004607;28;20274;-74
2023/08/19 10:22:53;;;;;;;8.57;3.80;;;;;;;;;;5006128;28;20312;-75
2023/08/19 10:25:20;;;;;;;5.67;4.03;;;;;;;;;;5003806;28;20196;-77
2023/08/19 10:27:46;;;;;;;7.73;4.33;;;;;;;;;;5001955;28;20689;-77
2023/08/19 10:30:24;;;;;;;7.10;5.10;;;;;;;;;;5003058;28;20180;-72
2023/08/19 10:32:50;;;;;;;6.30;4.43;;;;;;;;;;4999182;28;20319;-72
2023/08/19 10:35:18;;;;;;;6.33;4.27;;;;;;;;;;5003312;28;20192;-73
2023/08/19 10:37:50;;;;;;;4.87;4.00;;;;;;;;;;4998147;28;20282;-72
2023/08/19 10:40:26;;;;;;;6.30;4.30;;;;;;;;;;5002442;28;20194;-74
2023/08/19 10:42:59;;;;;;;4.60;3.90;;;;;;;;;;5006923;28;20224;-74
2023/08/19 10:45:35;;;;;;;6.37;4.17;;;;;;;;;;5002681;28;20213;-74
2023/08/19 10:48:02;;;;;;;5.33;3.93;;;;;;;;;;4997987;28;20209;-74
2023/08/19 10:50:35;;;;;;;7.00;4.10;;;;;;;;;;5000915;28;20248;-73
2023/08/19 10:53:03;;;;;;;6.20;3.87;;;;;;;;;;4997239;28;20214;-73
2023/08/19 10:55:49;;;;;;;4.27;3.83;;;;;;;;;;4984765;28;20213;-73
2023/08/19 10:58:15;;;;;;;6.30;4.13;;;;;;;;;;5004065;28;20667;-73
2023/08/19 11:00:42;;;;;;;6.73;4.20;;;;;;;;;;4996201;28;20186;-73
2023/08/19 11:03:08;;;;;;;5.00;4.20;;;;;;;;;;5010298;28;20268;-73
2023/08/19 11:05:34;;;;;;;4.10;3.77;;;;;;;;;;4990892;28;20183;-73
2023/08/19 11:08:01;;;;;;;7.60;4.40;;;;;;;;;;5003548;28;20202;-73
2023/08/19 11:10:32;;;;;;;5.10;4.30;;;;;;;;;;5005217;28;20179;-73
2023/08/19 11:13:00;;;;;;;7.93;4.20;;;;;;;;;;5008835;28;20227;-72
2023/08/19 11:15:26;;;;;;;6.20;4.07;;;;;;;;;;5006499;28;20183;-72
2023/08/19 11:17:52;;;;;;;6.40;4.00;;;;;;;;;;5003556;28;20190;-72
2023/08/19 11:20:19;;;;;;;5.20;4.27;;;;;;;;;;5003639;28;20696;-75
2023/08/19 11:22:45;;;;;;;5.83;4.50;;;;;;;;;;5006581;28;20717;-73
2023/08/19 11:25:12;;;;;;;6.33;4.97;;;;;;;;;;5006393;28;20195;-73
2023/08/19 11:27:38;;;;;;;6.07;4.73;;;;;;;;;;5006414;28;20302;-73
2023/08/19 11:30:05;;;;;;;7.20;5.53;;;;;;;;;;5008346;28;20187;-73
2023/08/19 11:32:31;;;;;;;7.47;5.17;;;;;;;;;;5008596;28;20780;-74
2023/08/19 11:34:57;;;;;;;6.10;5.10;;;;;;;;;;5005994;28;20282;-74
2023/08/19 11:37:24;;;;;;;6.60;5.17;;;;;;;;;;4987967;28;20646;-74
2023/08/19 11:39:51;;;;;;;6.17;4.53;;;;;;;;;;5002944;28;20325;-74
2023/08/19 11:42:17;;;;;;;6.53;4.90;;;;;;;;;;5021301;28;20217;-75
2023/08/19 11:44:44;;;;;;;4.90;4.40;;;;;;;;;;5009477;28;20192;-76
2023/08/19 11:47:12;;;;;;;8.77;4.63;;;;;;;;;;5008549;28;20225;-76
2023/08/19 11:49:38;;;;;;;6.90;4.70;;;;;;;;;;4995829;28;20192;-76
2023/08/19 11:52:04;;;;;;;5.27;4.57;;;;;;;;;;5002835;28;20564;-75
2023/08/19 11:54:30;;;;;;;8.00;4.50;;;;;;;;;;5002872;28;20574;-75
2023/08/19 11:57:01;;;;;;;5.43;4.80;;;;;;;;;;5001369;28;20613;-75
2023/08/19 11:59:28;;;;;;;7.23;4.97;;;;;;;;;;5003863;28;20220;-76
2023/08/19 12:01:55;;;;;;;5.10;4.60;;;;;;;;;;5002469;28;20221;-76
2023/08/19 12:04:23;;;;;;;5.20;4.70;;;;;;;;;;5018706;28;20298;-77
2023/08/19 12:06:50;;;;;;;8.37;4.70;;;;;;;;;;5005357;28;20232;-75
2023/08/19 12:09:31;;;;;;;8.50;4.30;;;;;;;;;;5004104;28;20263;-77
2023/08/19 12:12:08;;;;;;;7.03;4.50;;;;;;;;;;5007752;28;20835;-85
2023/08/19 12:14:50;;;;;;;7.10;4.80;;;;;;;;;;4986290;28;20199;-77
2023/08/19 12:17:20;;;;;;;7.40;4.73;;;;;;;;;;5003502;28;20182;-77
2023/08/19 12:19:46;;;;;;;5.70;4.53;;;;;;;;;;5004910;28;20270;-77
2023/08/19 12:22:13;;;;;;;4.77;4.37;;;;;;;;;;4991911;28;20191;-78
2023/08/19 12:24:41;;;;;;;4.80;4.37;;;;;;;;;;5003956;28;20186;-77
2023/08/19 12:27:16;;;;;;;7.03;4.83;;;;;;;;;;5006028;28;20202;-77
2023/08/19 12:29:46;;;;;;;6.57;4.53;;;;;;;;;;5002939;28;20719;-76
2023/08/19 12:32:12;;;;;;;8.60;5.20;;;;;;;;;;5001891;28;20192;-76
2023/08/19 12:34:39;;;;;;;7.20;5.10;;;;;;;;;;4999467;28;20195;-76
2023/08/19 12:37:06;;;;;;;5.50;5.00;;;;;;;;;;5005348;28;20670;-76
2023/08/19 12:39:37;;;;;;;5.23;4.73;;;;;;;;;;5001520;28;20223;-76
2023/08/19 12:42:04;;;;;;;7.80;4.70;;;;;;;;;;5019206;28;20194;-76
2023/08/19 12:44:30;;;;;;;5.67;4.93;;;;;;;;;;5002656;28;20621;-76
2023/08/19 12:46:57;;;;;;;8.60;4.80;;;;;;;;;;5004125;28;20816;-76
2023/08/19 12:49:23;;;;;;;7.37;4.87;;;;;;;;;;5001080;28;20185;-76
2023/08/19 12:51:52;;;;;;;5.33;4.83;;;;;;;;;;5003405;28;20307;-76
2023/08/19 12:54:21;;;;;;;6.83;5.37;;;;;;;;;;5001477;28;20244;-76
2023/08/19 12:56:50;;;;;;;6.37;5.03;;;;;;;;;;5009975;28;20200;-76
2023/08/19 12:59:17;;;;;;;7.90;5.23;;;;;;;;;;5002904;28;20189;-76
2023/08/19 13:01:46;;;;;;;6.13;4.93;;;;;;;;;;5007242;28;20222;-76
2023/08/19 13:04:17;;;;;;;8.33;5.50;;;;;;;;;;5003799;28;20213;-77
2023/08/19 13:06:49;;;;;;;7.00;5.07;;;;;;;;;;4997335;28;20210;-76
2023/08/19 13:09:16;;;;;;;6.50;5.10;;;;;;;;;;5006445;28;20187;-75
2023/08/19 13:11:43;;;;;;;5.93;4.83;;;;;;;;;;5008353;28;20211;-74
2023/08/19 13:14:13;;;;;;;5.63;4.80;;;;;;;;;;5070965;23;20244;-76
2023/08/19 13:16:39;;;;;;;5.57;5.00;;;;;;;;;;5082316;28;20175;-78
2023/08/19 13:19:05;;;;;;;7.37;4.77;;;;;;;;;;5066995;28;20189;-77
2023/08/19 13:21:31;;;;;;;5.60;5.00;;;;;;;;;;5060436;28;20653;-77
2023/08/19 13:23:57;;;;;;;7.50;5.03;;;;;;;;;;5050803;28;20210;-76
2023/08/19 13:26:25;;;;;;;6.43;4.50;;;;;;;;;;5026511;28;20218;-76
2023/08/19 13:28:51;;;;;;;6.73;4.90;;;;;;;;;;5044401;28;20640;-78
2023/08/19 13:31:18;;;;;;;7.20;5.03;;;;;;;;;;5042768;28;20183;-76
2023/08/19 13:33:44;;;;;;;5.13;4.63;;;;;;;;;;5042752;28;20198;-76
2023/08/19 13:36:12;;;;;;;5.77;4.80;;;;;;;;;;5008693;28;20704;-75
2023/08/19 13:38:39;;;;;;;8.20;5.20;;;;;;;;;;5040656;28;20203;-75
2023/08/19 13:41:05;;;;;;;6.93;5.07;;;;;;;;;;5041251;28;20238;-77
2023/08/19 13:43:31;;;;;;;5.90;5.00;;;;;;;;;;5043922;28;20213;-76
2023/08/19 13:45:57;;;;;;;7.60;5.23;;;;;;;;;;5041920;28;20191;-76
2023/08/19 13:48:23;;;;;;;8.20;5.57;;;;;;;;;;5046269;28;20207;-76
2023/08/19 13:50:49;;;;;;;6.40;5.27;;;;;;;;;;5045661;28;20192;-76
2023/08/19 13:53:16;;;;;;;6.13;4.90;;;;;;;;;;5036891;28;20284;-76
2023/08/19 13:55:43;;;;;;;7.33;4.87;;;;;;;;;;5042908;28;20187;-76
2023/08/19 13:58:10;;;;;;;7.07;5.53;;;;;;;;;;5045914;28;20193;-76
2023/08/19 14:00:36;;;;;;;7.10;5.57;;;;;;;;;;5044617;28;20187;-76
2023/08/19 14:03:02;;;;;;;8.37;5.60;;;;;;;;;;5047822;28;20208;-76
2023/08/19 14:05:29;;;;;;;6.33;5.33;;;;;;;;;;5042859;28;20278;-75
2023/08/19 14:07:55;;;;;;;7.70;5.80;;;;;;;;;;5043935;28;20678;-76
2023/08/19 14:10:22;;;;;;;8.73;6.20;;;;;;;;;;5044060;28;20178;-77
2023/08/19 14:12:48;;;;;;;6.57;5.60;;;;;;;;;;5041233;28;20186;-76
2023/08/19 14:15:15;;;;;;;7.23;5.57;;;;;;;;;;5042200;28;20190;-76
2023/08/19 14:17:41;;;;;;;7.37;5.33;;;;;;;;;;5045378;28;20199;-75
2023/08/19 14:20:08;;;;;;;6.00;5.40;;;;;;;;;;5042093;28;20314;-79
2023/08/19 14:22:34;;;;;;;5.87;5.37;;;;;;;;;;5042451;28;20200;-77
2023/08/19 14:25:00;;;;;;;13.90;5.63;;;;;;;;;;5042905;28;20620;-77
2023/08/19 14:27:26;;;;;;;8.07;5.90;;;;;;;;;;5045838;28;20210;-76
2023/08/19 14:29:52;;;;;;;6.23;5.63;;;;;;;;;;5043847;28;20185;-79
2023/08/19 14:32:19;;;;;;;8.40;6.03;;;;;;;;;;5051681;28;20185;-77
2023/08/19 14:34:45;;;;;;;7.70;5.63;;;;;;;;;;5042628;28;20292;-77
2023/08/19 14:37:11;;;;;;;7.63;5.93;;;;;;;;;;5047844;28;20189;-80
2023/08/19 14:39:37;;;;;;;8.90;5.63;;;;;;;;;;5047691;28;20200;-75
2023/08/19 14:42:03;;;;;;;7.30;5.50;;;;;;;;;;5050805;28;20189;-74
2023/08/19 14:44:30;;;;;;;7.00;5.77;;;;;;;;;;5046762;28;20213;-78